»·PEaware :: N74TW KSNA-KAVX

N74TW :: KSNA-KAVX

FLIGHT INFORMATION

Flight Status: Arrived
Operator: Privately registered:
United States
More flights under this callsign
Pilot: Kelly C. (19495)
Aircraft: BEECH AIRCRAFT BARON
(BE58)
More flights by this aircraft type
Origin: KSNA John Wayne-Orange Co
United States
Destination: KAVX Catalina
United States
More flights between these airports :: More routes between these airports
Route: SLI V21 SXC
File this flight plan on PilotEdge
Remarks: I-7
Altitude:
(Current/Filed)
4,000ft
Speed:
(Current/Filed)
160kts
Departed: 12-Jan-20 09:41 AM
Arrived: 12-Jan-20 10:03 AM
Distance/Time
Traveled:
32nm/0:22
Distance/Time
To Go:
Arrived

Flight Plot

Page will automatically refresh every two minutes.


Map Options




Map Legend


Flown Route
Filed Route
Departure Airport
Arrival Airport
Navaid (VOR, NDB)
Fix

Horizontal Profiles

Position Reports

Time Latitude Longitude Heading Altitude Ground
Speed
12-Jan-20 09:23 33.674039 -117.872049 118 59ft 0kts
12-Jan-20 09:24 33.674039 -117.872049 118 59ft 0kts
12-Jan-20 09:25 33.674039 -117.872049 118 59ft 0kts
12-Jan-20 09:26 33.674039 -117.872049 118 59ft 0kts
12-Jan-20 09:27 33.674039 -117.872049 118 59ft 0kts
12-Jan-20 09:28 33.674039 -117.872049 118 59ft 0kts
12-Jan-20 09:29 33.674039 -117.872049 118 59ft 0kts
12-Jan-20 09:30 33.674039 -117.872049 118 59ft 0kts
12-Jan-20 09:31 33.674039 -117.872049 118 59ft 0kts
12-Jan-20 09:32 33.674039 -117.872049 118 59ft 0kts
12-Jan-20 09:33 33.674039 -117.872049 118 59ft 0kts
12-Jan-20 09:34 33.674039 -117.872049 118 59ft 0kts
12-Jan-20 09:35 33.674039 -117.872049 118 59ft 0kts
12-Jan-20 09:36 33.674015 -117.871664 75 59ft 13kts
12-Jan-20 09:37 33.677813 -117.869002 29 59ft 20kts
12-Jan-20 09:38 33.681197 -117.866397 116 59ft 0kts
12-Jan-20 09:39 33.680902 -117.865723 123 59ft 11kts
12-Jan-20 09:40 33.662491 -117.877894 214 428ft 133kts
12-Jan-20 09:41 33.629525 -117.912120 221 1534ft 157kts
12-Jan-20 09:42 33.596122 -117.947561 222 2657ft 158kts
12-Jan-20 09:43 33.562542 -117.982580 221 3768ft 159kts
12-Jan-20 09:44 33.527299 -118.018814 228 4000ft 170kts
12-Jan-20 09:45 33.506343 -118.069900 248 3998ft 170kts
12-Jan-20 09:46 33.487114 -118.122245 247 4004ft 171kts
12-Jan-20 09:47 33.467537 -118.174354 247 3999ft 170kts
12-Jan-20 09:48 33.448024 -118.226464 247 3995ft 172kts
12-Jan-20 09:49 33.428682 -118.277944 247 3994ft 160kts
12-Jan-20 09:50 33.411262 -118.323905 248 3997ft 144kts
12-Jan-20 09:51 33.394983 -118.366897 248 3998ft 137kts
12-Jan-20 09:52 33.389224 -118.408272 309 3998ft 127kts
12-Jan-20 09:53 33.424079 -118.413026 5 3736ft 144kts
12-Jan-20 09:54 33.466073 -118.406731 5 3397ft 149kts
12-Jan-20 09:55 33.504577 -118.408031 324 3401ft 135kts
12-Jan-20 09:56 33.534576 -118.434375 346 3394ft 131kts
12-Jan-20 09:57 33.543659 -118.405235 142 3405ft 135kts
12-Jan-20 09:58 33.507395 -118.400488 188 3257ft 146kts
12-Jan-20 09:59 33.467559 -118.406372 188 2736ft 135kts
12-Jan-20 10:00 33.432733 -118.410793 161 2267ft 105kts
12-Jan-20 10:01 33.409327 -118.408399 237 1682ft 105kts
12-Jan-20 10:02 33.403791 -118.416963 118 1569ft 4kts
12-Jan-20 10:03 33.403489 -118.415373 62 1569ft 0kts
12-Jan-20 10:04 33.403489 -118.415373 62 1569ft 0kts
12-Jan-20 10:05 33.403489 -118.415373 62 1569ft 0kts
12-Jan-20 10:06 33.403489 -118.415373 62 1569ft 0kts
12-Jan-20 10:07 33.403489 -118.415373 62 1569ft 0kts
12-Jan-20 10:08 33.403489 -118.415373 62 1569ft 0kts
12-Jan-20 10:09 33.403489 -118.415373 62 1569ft 0kts
12-Jan-20 10:10 33.403489 -118.415373 62 1569ft 0kts
12-Jan-20 10:11 33.403489 -118.415373 62 1569ft 0kts
12-Jan-20 10:12 33.403489 -118.415373 62 1569ft 0kts
12-Jan-20 10:13 33.403489 -118.415373 62 1569ft 0kts
12-Jan-20 10:14 33.403489 -118.415373 62 1569ft 0kts
12-Jan-20 10:15 33.403489 -118.415373 62 1569ft 0kts
12-Jan-20 10:16 33.403489 -118.415373 62 1569ft 0kts
12-Jan-20 10:17 33.403489 -118.415373 62 1569ft 0kts

Navigation Log

Ident Type
Flight plan parsing failed, navigation log unavailable